Wilton, Connecticut
Current Conditions -  °F | °C
As of 8:53 PM on Thursday 20 Nov 2014 (Local Time) from KDXR Reporting Station
Clear Clear  
Wind Chill: 23°   Ceiling: Unl
Heat Index: 32°   Visibility: 10mi
Dew Point:   Wind: 12mph
Humidity: 37%   Direction: 270°W
Pressure: 29.94"   Gusts: 18mph
Location:  41.2°N, 73.44°W
Report Text: KDXR 210153Z 27010G16KT 10SM CLR 00/M13 A2994 RMK AO2 SLP140 T00001133
Loading
Personal Weather Stations






























Interactive Weather Map New forecast layout! Learn more

10-Day Weather Forecast

Advertisements
Track Severe Weather on mobile